Dodge City Regional Airport
KDDC : now visible

Airfield :











YOU CAN JOIN US ON...

 
LOGIN :

Register | Disclaimer

   EN    FR    IT 

 









Legend :    VFR   Marginal VFR   IFR   Intensive IFR   Very Intensive IFR
Visi :
Ceiling :
>= 8 km
>= 3000ft
5 to 8 km
1000 to 3000 ft
1500m to 5 km
500 to 1000 ft
800 to 1500m
200 to 500 ft
< 800m
< 200 ft
Symbols :   Thunderstorms  Fog  Heavy snow  Heavy precipitations  Wind > 20 kt






- Airport Elevation : 2594 ft
- IATA code : DDC


KDDC - Dodge City Regional

CURRENT METAR :
  • 242052Z AUTO 04010KT 8SM CLR 03/M03 A2989 RMK AO2 SLP136 T00331033 57040

EXPIRED METARs :
  • 241952Z AUTO 04007KT 8SM FEW020 03/M03 A2993 RMK AO2 SLP151 T00281033
  • 241922Z AUTO 04008KT 8SM SCT017 03/M03 A2995 RMK AO2 T00331033
  • 241852Z AUTO 01011KT 7SM OVC016 02/M04 A2998 RMK AO2 SLP163 T00171039
  • 241752Z AUTO 03011KT 7SM OVC012 01/M04 A3002 RMK AO2 SLP174 T00061039 10006 21022 58001

TAF KDDC
Valid from the 24 at 20:00 until the 25 at 18:00 UTC


241930Z 2420/2518 05010KT P6SM SCT020
TEMPO 2420/2424 BKN020
FM250500 07007KT 5SM -SNPL OVC015
FM250800 05010KT 2SM -SN BR OVC003
KZKC FIR / North America



MET'MAP, your aeronautical weather chart ! - Copyright ORBIFLY December 2007 - Disclaimer

ORBIFLY MET'MAP TEAM :

Programming & Development : Alexandra Zaïnal
Concept & original design : Baudouin d'Aumeries
Assistance for programming : Marc-Olivier Méhu
Technical & hardware support : Manuel Goepfert

Contact : metmap@orbifly.com




SOURCES & CREDITS :

   NOAA       Earth
Advisory